sensor_id;sensor_type;location;lat;lon;timestamp;P1;durP1;ratioP1;P2;durP2;ratioP2
74124;SDS011;62475;52.192;5.396;2022-09-09T00:01:01;2.88;;;1.30;;
74124;SDS011;62475;52.192;5.396;2022-09-09T00:03:52;2.50;;;1.10;;
74124;SDS011;62475;52.192;5.396;2022-09-09T00:06:23;1.58;;;1.10;;
74124;SDS011;62475;52.192;5.396;2022-09-09T00:08:59;2.95;;;1.55;;
74124;SDS011;62475;52.192;5.396;2022-09-09T00:11:46;3.22;;;1.13;;
74124;SDS011;62475;52.192;5.396;2022-09-09T00:16:45;4.32;;;1.50;;
74124;SDS011;62475;52.192;5.396;2022-09-09T00:22:22;2.45;;;1.40;;
74124;SDS011;62475;52.192;5.396;2022-09-09T00:24:46;2.90;;;1.60;;
74124;SDS011;62475;52.192;5.396;2022-09-09T00:27:25;8.70;;;1.90;;
74124;SDS011;62475;52.192;5.396;2022-09-09T00:32:47;3.60;;;1.63;;
74124;SDS011;62475;52.192;5.396;2022-09-09T00:35:18;3.63;;;1.77;;
74124;SDS011;62475;52.192;5.396;2022-09-09T00:37:50;2.95;;;1.90;;
74124;SDS011;62475;52.192;5.396;2022-09-09T00:40:35;3.30;;;1.95;;
74124;SDS011;62475;52.192;5.396;2022-09-09T00:54:55;4.65;;;2.97;;
74124;SDS011;62475;52.192;5.396;2022-09-09T00:57:29;4.45;;;2.60;;
74124;SDS011;62475;52.192;5.396;2022-09-09T01:05:33;5.38;;;2.47;;
74124;SDS011;62475;52.192;5.396;2022-09-09T01:08:05;7.45;;;3.20;;
74124;SDS011;62475;52.192;5.396;2022-09-09T01:10:49;4.28;;;2.72;;
74124;SDS011;62475;52.192;5.396;2022-09-09T01:13:34;7.65;;;2.85;;
74124;SDS011;62475;52.192;5.396;2022-09-09T01:16:01;5.75;;;2.88;;
74124;SDS011;62475;52.192;5.396;2022-09-09T01:18:30;5.78;;;3.50;;
74124;SDS011;62475;52.192;5.396;2022-09-09T01:21:04;4.50;;;2.88;;
74124;SDS011;62475;52.192;5.396;2022-09-09T01:26:34;8.55;;;3.17;;
74124;SDS011;62475;52.192;5.396;2022-09-09T01:29:02;8.30;;;3.33;;
74124;SDS011;62475;52.192;5.396;2022-09-09T01:31:40;5.10;;;3.13;;
74124;SDS011;62475;52.192;5.396;2022-09-09T01:34:17;5.82;;;3.40;;
74124;SDS011;62475;52.192;5.396;2022-09-09T01:39:11;11.60;;;3.13;;
74124;SDS011;62475;52.192;5.396;2022-09-09T01:41:37;5.05;;;3.42;;
74124;SDS011;62475;52.192;5.396;2022-09-09T01:44:03;5.85;;;3.25;;
74124;SDS011;62475;52.192;5.396;2022-09-09T01:46:29;9.57;;;3.42;;
74124;SDS011;62475;52.192;5.396;2022-09-09T01:48:54;5.40;;;2.95;;
74124;SDS011;62475;52.192;5.396;2022-09-09T01:51:20;4.78;;;3.20;;
74124;SDS011;62475;52.192;5.396;2022-09-09T01:53:46;6.55;;;2.92;;
74124;SDS011;62475;52.192;5.396;2022-09-09T01:59:18;7.32;;;3.70;;
74124;SDS011;62475;52.192;5.396;2022-09-09T02:04:44;7.05;;;3.65;;
74124;SDS011;62475;52.192;5.396;2022-09-09T02:09:44;5.38;;;3.75;;
74124;SDS011;62475;52.192;5.396;2022-09-09T02:12:14;6.50;;;3.47;;
74124;SDS011;62475;52.192;5.396;2022-09-09T02:14:46;9.98;;;4.22;;
74124;SDS011;62475;52.192;5.396;2022-09-09T02:17:18;6.63;;;4.20;;
74124;SDS011;62475;52.192;5.396;2022-09-09T02:19:54;6.68;;;4.25;;
74124;SDS011;62475;52.192;5.396;2022-09-09T02:22:25;11.43;;;4.90;;
74124;SDS011;62475;52.192;5.396;2022-09-09T02:24:52;9.98;;;5.13;;
74124;SDS011;62475;52.192;5.396;2022-09-09T02:27:23;7.55;;;5.05;;
74124;SDS011;62475;52.192;5.396;2022-09-09T02:29:49;13.55;;;6.68;;
74124;SDS011;62475;52.192;5.396;2022-09-09T02:32:17;11.18;;;5.35;;
74124;SDS011;62475;52.192;5.396;2022-09-09T02:34:52;13.95;;;5.50;;
74124;SDS011;62475;52.192;5.396;2022-09-09T02:37:22;10.73;;;5.65;;
74124;SDS011;62475;52.192;5.396;2022-09-09T02:39:53;10.32;;;5.40;;
74124;SDS011;62475;52.192;5.396;2022-09-09T02:42:19;11.07;;;5.20;;
74124;SDS011;62475;52.192;5.396;2022-09-09T02:44:45;8.18;;;4.95;;
74124;SDS011;62475;52.192;5.396;2022-09-09T02:52:32;10.10;;;5.40;;
74124;SDS011;62475;52.192;5.396;2022-09-09T02:55:17;9.27;;;4.95;;
74124;SDS011;62475;52.192;5.396;2022-09-09T02:57:52;10.35;;;5.35;;
74124;SDS011;62475;52.192;5.396;2022-09-09T03:00:26;10.90;;;5.57;;
74124;SDS011;62475;52.192;5.396;2022-09-09T03:02:53;8.65;;;5.45;;
74124;SDS011;62475;52.192;5.396;2022-09-09T03:05:19;10.18;;;6.03;;
74124;SDS011;62475;52.192;5.396;2022-09-09T03:07:45;10.32;;;5.20;;
74124;SDS011;62475;52.192;5.396;2022-09-09T03:10:11;12.07;;;5.63;;
74124;SDS011;62475;52.192;5.396;2022-09-09T03:12:36;9.50;;;6.13;;
74124;SDS011;62475;52.192;5.396;2022-09-09T03:15:02;10.80;;;6.07;;
74124;SDS011;62475;52.192;5.396;2022-09-09T03:17:27;9.18;;;5.72;;
74124;SDS011;62475;52.192;5.396;2022-09-09T03:19:53;11.95;;;5.78;;
74124;SDS011;62475;52.192;5.396;2022-09-09T03:22:19;13.23;;;6.22;;
74124;SDS011;62475;52.192;5.396;2022-09-09T03:24:45;10.95;;;6.22;;
74124;SDS011;62475;52.192;5.396;2022-09-09T03:27:11;11.27;;;6.05;;
74124;SDS011;62475;52.192;5.396;2022-09-09T03:29:39;10.43;;;6.28;;
74124;SDS011;62475;52.192;5.396;2022-09-09T03:32:04;11.32;;;6.55;;
74124;SDS011;62475;52.192;5.396;2022-09-09T03:34:29;10.85;;;6.60;;
74124;SDS011;62475;52.192;5.396;2022-09-09T03:36:55;12.15;;;7.60;;
74124;SDS011;62475;52.192;5.396;2022-09-09T03:39:20;10.85;;;6.55;;
74124;SDS011;62475;52.192;5.396;2022-09-09T03:41:45;15.40;;;7.43;;
74124;SDS011;62475;52.192;5.396;2022-09-09T03:44:13;14.25;;;8.00;;
74124;SDS011;62475;52.192;5.396;2022-09-09T03:46:38;14.82;;;7.07;;
74124;SDS011;62475;52.192;5.396;2022-09-09T03:49:04;13.57;;;7.40;;
74124;SDS011;62475;52.192;5.396;2022-09-09T03:51:32;12.52;;;7.55;;
74124;SDS011;62475;52.192;5.396;2022-09-09T03:54:01;14.73;;;7.88;;
74124;SDS011;62475;52.192;5.396;2022-09-09T03:56:29;12.82;;;7.95;;
74124;SDS011;62475;52.192;5.396;2022-09-09T03:58:55;15.60;;;7.03;;
74124;SDS011;62475;52.192;5.396;2022-09-09T04:01:20;17.37;;;8.63;;
74124;SDS011;62475;52.192;5.396;2022-09-09T04:03:45;13.73;;;8.40;;
74124;SDS011;62475;52.192;5.396;2022-09-09T04:06:11;11.20;;;7.10;;
74124;SDS011;62475;52.192;5.396;2022-09-09T04:08:39;13.23;;;8.05;;
74124;SDS011;62475;52.192;5.396;2022-09-09T04:11:05;12.88;;;8.00;;
74124;SDS011;62475;52.192;5.396;2022-09-09T04:13:31;14.40;;;8.95;;
74124;SDS011;62475;52.192;5.396;2022-09-09T04:15:58;11.65;;;7.82;;
74124;SDS011;62475;52.192;5.396;2022-09-09T04:18:24;13.25;;;7.50;;
74124;SDS011;62475;52.192;5.396;2022-09-09T04:20:51;14.15;;;7.85;;
74124;SDS011;62475;52.192;5.396;2022-09-09T04:23:17;18.27;;;8.48;;
74124;SDS011;62475;52.192;5.396;2022-09-09T04:25:53;16.60;;;7.43;;
74124;SDS011;62475;52.192;5.396;2022-09-09T04:28:20;13.38;;;8.32;;
74124;SDS011;62475;52.192;5.396;2022-09-09T04:30:47;14.73;;;8.27;;
74124;SDS011;62475;52.192;5.396;2022-09-09T04:33:13;13.00;;;8.35;;
74124;SDS011;62475;52.192;5.396;2022-09-09T04:35:39;15.65;;;9.23;;
74124;SDS011;62475;52.192;5.396;2022-09-09T04:38:10;12.40;;;7.68;;
74124;SDS011;62475;52.192;5.396;2022-09-09T04:40:35;14.30;;;7.72;;
74124;SDS011;62475;52.192;5.396;2022-09-09T04:43:01;16.75;;;8.43;;
74124;SDS011;62475;52.192;5.396;2022-09-09T04:45:30;15.05;;;8.10;;
74124;SDS011;62475;52.192;5.396;2022-09-09T04:47:56;12.50;;;7.63;;
74124;SDS011;62475;52.192;5.396;2022-09-09T04:50:22;13.07;;;7.32;;
74124;SDS011;62475;52.192;5.396;2022-09-09T04:52:47;11.95;;;7.65;;
74124;SDS011;62475;52.192;5.396;2022-09-09T04:55:13;11.70;;;6.93;;
74124;SDS011;62475;52.192;5.396;2022-09-09T04:57:39;13.13;;;7.28;;
74124;SDS011;62475;52.192;5.396;2022-09-09T05:00:05;13.73;;;7.15;;
74124;SDS011;62475;52.192;5.396;2022-09-09T05:02:31;12.70;;;6.95;;
74124;SDS011;62475;52.192;5.396;2022-09-09T05:04:57;16.25;;;7.13;;
74124;SDS011;62475;52.192;5.396;2022-09-09T05:07:23;12.98;;;6.78;;
74124;SDS011;62475;52.192;5.396;2022-09-09T05:09:48;11.75;;;6.50;;
74124;SDS011;62475;52.192;5.396;2022-09-09T05:12:14;12.23;;;7.18;;
74124;SDS011;62475;52.192;5.396;2022-09-09T05:14:41;12.45;;;6.47;;
74124;SDS011;62475;52.192;5.396;2022-09-09T05:17:07;11.45;;;6.95;;
74124;SDS011;62475;52.192;5.396;2022-09-09T05:19:32;12.97;;;6.20;;
74124;SDS011;62475;52.192;5.396;2022-09-09T05:21:58;11.53;;;5.97;;
74124;SDS011;62475;52.192;5.396;2022-09-09T05:24:23;10.18;;;5.13;;
74124;SDS011;62475;52.192;5.396;2022-09-09T05:26:48;11.47;;;5.20;;
74124;SDS011;62475;52.192;5.396;2022-09-09T05:29:14;10.10;;;5.35;;
74124;SDS011;62475;52.192;5.396;2022-09-09T05:31:39;13.07;;;6.30;;
74124;SDS011;62475;52.192;5.396;2022-09-09T05:34:08;11.18;;;5.50;;
74124;SDS011;62475;52.192;5.396;2022-09-09T05:36:33;9.63;;;5.30;;
74124;SDS011;62475;52.192;5.396;2022-09-09T05:38:58;13.47;;;5.87;;
74124;SDS011;62475;52.192;5.396;2022-09-09T05:41:24;12.68;;;6.28;;
74124;SDS011;62475;52.192;5.396;2022-09-09T05:43:49;9.88;;;5.72;;
74124;SDS011;62475;52.192;5.396;2022-09-09T05:46:24;10.55;;;5.35;;
74124;SDS011;62475;52.192;5.396;2022-09-09T05:48:50;8.50;;;5.57;;
74124;SDS011;62475;52.192;5.396;2022-09-09T05:51:18;11.27;;;6.53;;
74124;SDS011;62475;52.192;5.396;2022-09-09T05:53:46;12.52;;;5.82;;
74124;SDS011;62475;52.192;5.396;2022-09-09T05:56:14;11.73;;;5.72;;
74124;SDS011;62475;52.192;5.396;2022-09-09T05:58:40;10.48;;;5.43;;
74124;SDS011;62475;52.192;5.396;2022-09-09T06:01:13;10.57;;;5.57;;
74124;SDS011;62475;52.192;5.396;2022-09-09T06:03:40;9.57;;;5.00;;
74124;SDS011;62475;52.192;5.396;2022-09-09T06:06:07;12.90;;;5.90;;
74124;SDS011;62475;52.192;5.396;2022-09-09T06:08:34;10.57;;;5.40;;
74124;SDS011;62475;52.192;5.396;2022-09-09T06:11:04;11.82;;;5.72;;
74124;SDS011;62475;52.192;5.396;2022-09-09T06:13:32;7.97;;;4.93;;
74124;SDS011;62475;52.192;5.396;2022-09-09T06:15:57;14.70;;;5.50;;
74124;SDS011;62475;52.192;5.396;2022-09-09T06:18:23;8.70;;;4.70;;
74124;SDS011;62475;52.192;5.396;2022-09-09T06:21:35;8.02;;;5.20;;
74124;SDS011;62475;52.192;5.396;2022-09-09T06:23:48;7.40;;;4.25;;
74124;SDS011;62475;52.192;5.396;2022-09-09T06:26:19;7.15;;;4.32;;
74124;SDS011;62475;52.192;5.396;2022-09-09T06:28:47;8.23;;;4.28;;
74124;SDS011;62475;52.192;5.396;2022-09-09T06:31:15;12.00;;;4.28;;
74124;SDS011;62475;52.192;5.396;2022-09-09T06:33:48;7.35;;;3.90;;
74124;SDS011;62475;52.192;5.396;2022-09-09T06:36:18;9.35;;;4.07;;
74124;SDS011;62475;52.192;5.396;2022-09-09T06:38:45;8.55;;;3.85;;
74124;SDS011;62475;52.192;5.396;2022-09-09T06:43:22;8.23;;;3.00;;
74124;SDS011;62475;52.192;5.396;2022-09-09T06:48:19;6.93;;;2.85;;
74124;SDS011;62475;52.192;5.396;2022-09-09T06:50:44;6.93;;;2.78;;
74124;SDS011;62475;52.192;5.396;2022-09-09T06:53:09;5.40;;;2.88;;
74124;SDS011;62475;52.192;5.396;2022-09-09T06:55:35;7.83;;;2.97;;
74124;SDS011;62475;52.192;5.396;2022-09-09T06:58:00;6.28;;;3.15;;
74124;SDS011;62475;52.192;5.396;2022-09-09T07:00:26;8.05;;;3.08;;
74124;SDS011;62475;52.192;5.396;2022-09-09T07:02:51;9.05;;;2.80;;
74124;SDS011;62475;52.192;5.396;2022-09-09T07:05:17;6.00;;;2.90;;
74124;SDS011;62475;52.192;5.396;2022-09-09T07:07:42;7.23;;;3.10;;
74124;SDS011;62475;52.192;5.396;2022-09-09T07:10:08;8.95;;;2.50;;
74124;SDS011;62475;52.192;5.396;2022-09-09T07:12:33;6.53;;;2.58;;
74124;SDS011;62475;52.192;5.396;2022-09-09T07:14:58;9.83;;;2.90;;
74124;SDS011;62475;52.192;5.396;2022-09-09T07:17:24;8.52;;;2.78;;
74124;SDS011;62475;52.192;5.396;2022-09-09T07:19:49;8.73;;;2.97;;
74124;SDS011;62475;52.192;5.396;2022-09-09T07:22:14;5.53;;;2.75;;
74124;SDS011;62475;52.192;5.396;2022-09-09T07:24:41;9.00;;;2.70;;
74124;SDS011;62475;52.192;5.396;2022-09-09T07:27:06;10.77;;;2.40;;
74124;SDS011;62475;52.192;5.396;2022-09-09T07:29:31;11.63;;;2.87;;
74124;SDS011;62475;52.192;5.396;2022-09-09T07:31:56;7.18;;;2.40;;
74124;SDS011;62475;52.192;5.396;2022-09-09T07:34:23;9.10;;;2.63;;
74124;SDS011;62475;52.192;5.396;2022-09-09T07:36:48;7.05;;;2.50;;
74124;SDS011;62475;52.192;5.396;2022-09-09T07:39:14;6.17;;;2.37;;
74124;SDS011;62475;52.192;5.396;2022-09-09T07:41:41;9.02;;;2.58;;
74124;SDS011;62475;52.192;5.396;2022-09-09T07:44:11;5.88;;;2.45;;
74124;SDS011;62475;52.192;5.396;2022-09-09T07:46:39;9.25;;;2.53;;
74124;SDS011;62475;52.192;5.396;2022-09-09T07:49:05;5.70;;;2.20;;
74124;SDS011;62475;52.192;5.396;2022-09-09T07:51:34;4.15;;;1.90;;
74124;SDS011;62475;52.192;5.396;2022-09-09T07:54:02;8.07;;;2.55;;
74124;SDS011;62475;52.192;5.396;2022-09-09T07:56:30;9.20;;;2.70;;
74124;SDS011;62475;52.192;5.396;2022-09-09T07:58:56;8.63;;;2.35;;
74124;SDS011;62475;52.192;5.396;2022-09-09T08:03:57;7.03;;;2.42;;
74124;SDS011;62475;52.192;5.396;2022-09-09T08:06:25;10.10;;;2.55;;
74124;SDS011;62475;52.192;5.396;2022-09-09T08:08:52;9.23;;;2.63;;
74124;SDS011;62475;52.192;5.396;2022-09-09T08:11:17;4.55;;;2.00;;
74124;SDS011;62475;52.192;5.396;2022-09-09T08:13:43;6.80;;;2.83;;
74124;SDS011;62475;52.192;5.396;2022-09-09T08:18:37;7.05;;;2.53;;
74124;SDS011;62475;52.192;5.396;2022-09-09T08:21:25;9.48;;;2.60;;
74124;SDS011;62475;52.192;5.396;2022-09-09T08:23:53;6.70;;;3.13;;
74124;SDS011;62475;52.192;5.396;2022-09-09T08:26:20;5.43;;;2.40;;
74124;SDS011;62475;52.192;5.396;2022-09-09T08:28:49;8.52;;;2.20;;
74124;SDS011;62475;52.192;5.396;2022-09-09T08:31:17;12.15;;;2.50;;
74124;SDS011;62475;52.192;5.396;2022-09-09T08:33:47;6.38;;;2.30;;
74124;SDS011;62475;52.192;5.396;2022-09-09T08:36:15;8.20;;;2.42;;
74124;SDS011;62475;52.192;5.396;2022-09-09T08:38:48;8.02;;;2.22;;
74124;SDS011;62475;52.192;5.396;2022-09-09T08:44:00;7.45;;;1.90;;
74124;SDS011;62475;52.192;5.396;2022-09-09T08:52:03;7.35;;;1.88;;
74124;SDS011;62475;52.192;5.396;2022-09-09T08:54:37;4.90;;;1.80;;
74124;SDS011;62475;52.192;5.396;2022-09-09T08:57:03;14.32;;;2.35;;
74124;SDS011;62475;52.192;5.396;2022-09-09T08:59:39;7.20;;;2.30;;
74124;SDS011;62475;52.192;5.396;2022-09-09T09:04:51;5.45;;;1.98;;
74124;SDS011;62475;52.192;5.396;2022-09-09T09:09:57;5.37;;;1.67;;
74124;SDS011;62475;52.192;5.396;2022-09-09T09:12:31;4.50;;;1.58;;
74124;SDS011;62475;52.192;5.396;2022-09-09T09:15:05;10.18;;;2.33;;
74124;SDS011;62475;52.192;5.396;2022-09-09T09:17:38;5.10;;;1.52;;
74124;SDS011;62475;52.192;5.396;2022-09-09T09:20:05;6.00;;;2.58;;
74124;SDS011;62475;52.192;5.396;2022-09-09T09:22:41;5.60;;;1.80;;
74124;SDS011;62475;52.192;5.396;2022-09-09T09:25:22;7.13;;;2.10;;
74124;SDS011;62475;52.192;5.396;2022-09-09T09:30:26;5.53;;;1.92;;
74124;SDS011;62475;52.192;5.396;2022-09-09T09:33:05;8.32;;;2.30;;
74124;SDS011;62475;52.192;5.396;2022-09-09T09:35:35;7.32;;;1.95;;
74124;SDS011;62475;52.192;5.396;2022-09-09T09:38:00;7.03;;;2.20;;
74124;SDS011;62475;52.192;5.396;2022-09-09T09:40:27;5.85;;;2.10;;
74124;SDS011;62475;52.192;5.396;2022-09-09T09:42:54;7.72;;;2.10;;
74124;SDS011;62475;52.192;5.396;2022-09-09T09:45:33;6.38;;;2.30;;
74124;SDS011;62475;52.192;5.396;2022-09-09T09:48:04;6.25;;;1.95;;
74124;SDS011;62475;52.192;5.396;2022-09-09T09:50:32;8.73;;;2.20;;
74124;SDS011;62475;52.192;5.396;2022-09-09T09:53:03;13.20;;;2.08;;
74124;SDS011;62475;52.192;5.396;2022-09-09T09:55:31;8.88;;;2.38;;
74124;SDS011;62475;52.192;5.396;2022-09-09T09:58:04;5.95;;;1.67;;
74124;SDS011;62475;52.192;5.396;2022-09-09T10:00:31;7.03;;;2.78;;
74124;SDS011;62475;52.192;5.396;2022-09-09T10:02:59;7.13;;;1.92;;
74124;SDS011;62475;52.192;5.396;2022-09-09T10:05:26;9.18;;;2.20;;
74124;SDS011;62475;52.192;5.396;2022-09-09T10:08:03;5.25;;;2.22;;
74124;SDS011;62475;52.192;5.396;2022-09-09T10:16:17;10.55;;;2.45;;
74124;SDS011;62475;52.192;5.396;2022-09-09T10:21:34;7.28;;;1.90;;
74124;SDS011;62475;52.192;5.396;2022-09-09T10:27:05;5.38;;;2.10;;
74124;SDS011;62475;52.192;5.396;2022-09-09T10:32:46;6.32;;;1.80;;
74124;SDS011;62475;52.192;5.396;2022-09-09T10:48:54;8.35;;;2.28;;
74124;SDS011;62475;52.192;5.396;2022-09-09T10:56:36;7.38;;;2.35;;
74124;SDS011;62475;52.192;5.396;2022-09-09T10:59:06;5.30;;;2.65;;
74124;SDS011;62475;52.192;5.396;2022-09-09T11:02:02;6.32;;;2.13;;
74124;SDS011;62475;52.192;5.396;2022-09-09T11:04:45;6.95;;;2.22;;
74124;SDS011;62475;52.192;5.396;2022-09-09T11:07:39;10.98;;;2.42;;
74124;SDS011;62475;52.192;5.396;2022-09-09T11:10:07;4.68;;;2.03;;
74124;SDS011;62475;52.192;5.396;2022-09-09T11:12:59;8.45;;;2.38;;
74124;SDS011;62475;52.192;5.396;2022-09-09T11:15:35;5.57;;;3.72;;
74124;SDS011;62475;52.192;5.396;2022-09-09T11:18:07;6.78;;;2.80;;
74124;SDS011;62475;52.192;5.396;2022-09-09T11:20:40;8.32;;;2.08;;
74124;SDS011;62475;52.192;5.396;2022-09-09T11:23:17;6.18;;;2.70;;
74124;SDS011;62475;52.192;5.396;2022-09-09T11:25:51;7.07;;;2.10;;
74124;SDS011;62475;52.192;5.396;2022-09-09T11:28:31;8.27;;;2.53;;
74124;SDS011;62475;52.192;5.396;2022-09-09T11:42:38;5.32;;;2.00;;
74124;SDS011;62475;52.192;5.396;2022-09-09T11:45:10;6.43;;;1.90;;
74124;SDS011;62475;52.192;5.396;2022-09-09T11:47:51;5.47;;;2.00;;
74124;SDS011;62475;52.192;5.396;2022-09-09T11:52:44;11.85;;;2.17;;
74124;SDS011;62475;52.192;5.396;2022-09-09T11:55:19;6.03;;;1.70;;
74124;SDS011;62475;52.192;5.396;2022-09-09T11:58:01;4.07;;;1.60;;
74124;SDS011;62475;52.192;5.396;2022-09-09T12:00:35;3.92;;;2.00;;
74124;SDS011;62475;52.192;5.396;2022-09-09T12:03:08;5.75;;;2.35;;
74124;SDS011;62475;52.192;5.396;2022-09-09T12:06:15;5.38;;;2.17;;
74124;SDS011;62475;52.192;5.396;2022-09-09T12:08:46;6.30;;;2.40;;
74124;SDS011;62475;52.192;5.396;2022-09-09T12:11:29;6.63;;;2.20;;
74124;SDS011;62475;52.192;5.396;2022-09-09T12:13:56;5.05;;;2.65;;
74124;SDS011;62475;52.192;5.396;2022-09-09T12:16:33;6.72;;;2.50;;
74124;SDS011;62475;52.192;5.396;2022-09-09T12:21:37;6.88;;;2.42;;
74124;SDS011;62475;52.192;5.396;2022-09-09T12:24:17;5.95;;;2.55;;
74124;SDS011;62475;52.192;5.396;2022-09-09T12:29:55;5.65;;;2.53;;
74124;SDS011;62475;52.192;5.396;2022-09-09T12:32:29;5.72;;;2.20;;
74124;SDS011;62475;52.192;5.396;2022-09-09T12:34:55;8.35;;;3.00;;
74124;SDS011;62475;52.192;5.396;2022-09-09T12:37:34;9.85;;;3.92;;
74124;SDS011;62475;52.192;5.396;2022-09-09T12:40:03;5.55;;;2.85;;
74124;SDS011;62475;52.192;5.396;2022-09-09T12:45:19;6.40;;;3.00;;
74124;SDS011;62475;52.192;5.396;2022-09-09T12:47:54;9.85;;;3.25;;
74124;SDS011;62475;52.192;5.396;2022-09-09T12:50:26;5.50;;;2.95;;
74124;SDS011;62475;52.192;5.396;2022-09-09T12:55:48;7.18;;;2.40;;
74124;SDS011;62475;52.192;5.396;2022-09-09T12:58:19;7.65;;;2.65;;
74124;SDS011;62475;52.192;5.396;2022-09-09T13:00:49;7.10;;;2.60;;
74124;SDS011;62475;52.192;5.396;2022-09-09T13:03:21;7.80;;;2.55;;
74124;SDS011;62475;52.192;5.396;2022-09-09T13:05:47;7.90;;;2.78;;
74124;SDS011;62475;52.192;5.396;2022-09-09T13:08:14;4.65;;;2.45;;
74124;SDS011;62475;52.192;5.396;2022-09-09T13:11:00;6.80;;;2.58;;
74124;SDS011;62475;52.192;5.396;2022-09-09T13:13:34;6.63;;;2.20;;
74124;SDS011;62475;52.192;5.396;2022-09-09T13:16:01;6.90;;;2.13;;
74124;SDS011;62475;52.192;5.396;2022-09-09T13:18:30;7.18;;;2.55;;
74124;SDS011;62475;52.192;5.396;2022-09-09T13:20:58;5.22;;;2.13;;
74124;SDS011;62475;52.192;5.396;2022-09-09T13:23:29;5.72;;;1.95;;
74124;SDS011;62475;52.192;5.396;2022-09-09T13:25:56;6.97;;;2.38;;
74124;SDS011;62475;52.192;5.396;2022-09-09T13:28:48;4.50;;;1.80;;
74124;SDS011;62475;52.192;5.396;2022-09-09T13:31:24;3.50;;;2.13;;
74124;SDS011;62475;52.192;5.396;2022-09-09T13:33:53;6.13;;;1.92;;
74124;SDS011;62475;52.192;5.396;2022-09-09T13:36:27;4.43;;;2.22;;
74124;SDS011;62475;52.192;5.396;2022-09-09T13:38:56;5.13;;;2.30;;
74124;SDS011;62475;52.192;5.396;2022-09-09T13:41:25;6.90;;;2.35;;
74124;SDS011;62475;52.192;5.396;2022-09-09T13:43:55;4.18;;;2.30;;
74124;SDS011;62475;52.192;5.396;2022-09-09T13:49:22;4.05;;;2.83;;
74124;SDS011;62475;52.192;5.396;2022-09-09T13:51:48;6.28;;;4.18;;
74124;SDS011;62475;52.192;5.396;2022-09-09T13:54:16;7.57;;;3.67;;
74124;SDS011;62475;52.192;5.396;2022-09-09T13:56:44;8.23;;;3.13;;
74124;SDS011;62475;52.192;5.396;2022-09-09T13:59:14;8.25;;;3.58;;
74124;SDS011;62475;52.192;5.396;2022-09-09T14:01:41;7.40;;;3.00;;
74124;SDS011;62475;52.192;5.396;2022-09-09T14:04:06;8.35;;;3.60;;
74124;SDS011;62475;52.192;5.396;2022-09-09T14:06:32;9.95;;;3.40;;
74124;SDS011;62475;52.192;5.396;2022-09-09T14:09:01;6.88;;;2.83;;
74124;SDS011;62475;52.192;5.396;2022-09-09T14:11:26;6.13;;;2.75;;
74124;SDS011;62475;52.192;5.396;2022-09-09T14:13:51;5.63;;;2.60;;
74124;SDS011;62475;52.192;5.396;2022-09-09T14:16:17;6.37;;;2.67;;
74124;SDS011;62475;52.192;5.396;2022-09-09T14:18:43;5.63;;;2.55;;
74124;SDS011;62475;52.192;5.396;2022-09-09T14:21:09;8.30;;;2.85;;
74124;SDS011;62475;52.192;5.396;2022-09-09T14:23:35;7.30;;;2.97;;
74124;SDS011;62475;52.192;5.396;2022-09-09T14:26:00;7.55;;;2.78;;
74124;SDS011;62475;52.192;5.396;2022-09-09T14:28:26;5.82;;;2.72;;
74124;SDS011;62475;52.192;5.396;2022-09-09T14:30:51;4.30;;;2.40;;
74124;SDS011;62475;52.192;5.396;2022-09-09T14:33:16;5.30;;;2.40;;
74124;SDS011;62475;52.192;5.396;2022-09-09T14:35:42;4.20;;;2.30;;
74124;SDS011;62475;52.192;5.396;2022-09-09T14:38:09;10.85;;;2.60;;
74124;SDS011;62475;52.192;5.396;2022-09-09T14:40:35;8.10;;;2.80;;
74124;SDS011;62475;52.192;5.396;2022-09-09T14:43:02;6.05;;;2.70;;
74124;SDS011;62475;52.192;5.396;2022-09-09T14:45:27;7.03;;;2.70;;
74124;SDS011;62475;52.192;5.396;2022-09-09T14:47:53;8.48;;;2.95;;
74124;SDS011;62475;52.192;5.396;2022-09-09T14:50:19;9.45;;;4.53;;
74124;SDS011;62475;52.192;5.396;2022-09-09T14:52:45;9.43;;;3.30;;
74124;SDS011;62475;52.192;5.396;2022-09-09T14:55:11;6.40;;;3.67;;
74124;SDS011;62475;52.192;5.396;2022-09-09T14:57:36;5.15;;;3.55;;
74124;SDS011;62475;52.192;5.396;2022-09-09T15:00:03;5.63;;;3.33;;
74124;SDS011;62475;52.192;5.396;2022-09-09T15:02:30;7.13;;;3.70;;
74124;SDS011;62475;52.192;5.396;2022-09-09T15:04:56;8.98;;;4.18;;
74124;SDS011;62475;52.192;5.396;2022-09-09T15:07:24;6.20;;;3.85;;
74124;SDS011;62475;52.192;5.396;2022-09-09T15:09:51;8.80;;;3.83;;
74124;SDS011;62475;52.192;5.396;2022-09-09T15:12:17;10.13;;;4.35;;
74124;SDS011;62475;52.192;5.396;2022-09-09T15:14:43;9.25;;;4.20;;
74124;SDS011;62475;52.192;5.396;2022-09-09T15:17:09;11.20;;;3.70;;
74124;SDS011;62475;52.192;5.396;2022-09-09T15:19:35;7.88;;;3.38;;
74124;SDS011;62475;52.192;5.396;2022-09-09T15:22:01;4.80;;;2.88;;
74124;SDS011;62475;52.192;5.396;2022-09-09T15:24:27;6.70;;;3.10;;
74124;SDS011;62475;52.192;5.396;2022-09-09T15:26:52;5.65;;;2.72;;
74124;SDS011;62475;52.192;5.396;2022-09-09T15:29:19;5.68;;;3.08;;
74124;SDS011;62475;52.192;5.396;2022-09-09T15:31:44;3.65;;;1.95;;
74124;SDS011;62475;52.192;5.396;2022-09-09T15:34:10;8.43;;;2.58;;
74124;SDS011;62475;52.192;5.396;2022-09-09T15:36:37;3.80;;;2.10;;
74124;SDS011;62475;52.192;5.396;2022-09-09T15:39:04;3.22;;;1.80;;
74124;SDS011;62475;52.192;5.396;2022-09-09T15:41:32;3.88;;;1.70;;
74124;SDS011;62475;52.192;5.396;2022-09-09T15:43:58;4.93;;;2.10;;
74124;SDS011;62475;52.192;5.396;2022-09-09T15:48:58;5.50;;;1.48;;
74124;SDS011;62475;52.192;5.396;2022-09-09T15:51:35;3.97;;;1.38;;
74124;SDS011;62475;52.192;5.396;2022-09-09T15:54:05;5.78;;;1.50;;
74124;SDS011;62475;52.192;5.396;2022-09-09T15:56:30;4.43;;;1.40;;
74124;SDS011;62475;52.192;5.396;2022-09-09T15:58:57;4.20;;;1.45;;
74124;SDS011;62475;52.192;5.396;2022-09-09T16:01:23;3.45;;;1.20;;
74124;SDS011;62475;52.192;5.396;2022-09-09T16:03:50;2.38;;;1.40;;
74124;SDS011;62475;52.192;5.396;2022-09-09T16:06:20;2.72;;;1.10;;
74124;SDS011;62475;52.192;5.396;2022-09-09T16:08:47;2.75;;;1.15;;
74124;SDS011;62475;52.192;5.396;2022-09-09T16:11:25;3.40;;;1.52;;
74124;SDS011;62475;52.192;5.396;2022-09-09T16:13:52;3.53;;;1.15;;
74124;SDS011;62475;52.192;5.396;2022-09-09T16:16:21;2.70;;;1.60;;
74124;SDS011;62475;52.192;5.396;2022-09-09T16:18:50;6.13;;;1.92;;
74124;SDS011;62475;52.192;5.396;2022-09-09T16:21:18;3.83;;;1.70;;
74124;SDS011;62475;52.192;5.396;2022-09-09T16:23:45;4.10;;;1.60;;
74124;SDS011;62475;52.192;5.396;2022-09-09T16:26:12;3.90;;;1.70;;
74124;SDS011;62475;52.192;5.396;2022-09-09T16:28:38;3.40;;;1.73;;
74124;SDS011;62475;52.192;5.396;2022-09-09T16:31:05;4.55;;;1.77;;
74124;SDS011;62475;52.192;5.396;2022-09-09T16:33:35;3.85;;;1.67;;
74124;SDS011;62475;52.192;5.396;2022-09-09T16:36:20;1.80;;;1.60;;
74124;SDS011;62475;52.192;5.396;2022-09-09T16:38:54;4.47;;;1.60;;
74124;SDS011;62475;52.192;5.396;2022-09-09T16:41:22;3.35;;;1.50;;
74124;SDS011;62475;52.192;5.396;2022-09-09T16:43:47;5.10;;;1.55;;
74124;SDS011;62475;52.192;5.396;2022-09-09T16:46:18;4.18;;;1.13;;
74124;SDS011;62475;52.192;5.396;2022-09-09T16:48:44;2.30;;;1.70;;
74124;SDS011;62475;52.192;5.396;2022-09-09T16:51:19;3.45;;;1.58;;
74124;SDS011;62475;52.192;5.396;2022-09-09T16:56:16;3.78;;;1.70;;
74124;SDS011;62475;52.192;5.396;2022-09-09T16:58:43;4.07;;;1.48;;
74124;SDS011;62475;52.192;5.396;2022-09-09T17:01:15;5.82;;;1.90;;
74124;SDS011;62475;52.192;5.396;2022-09-09T17:03:40;5.32;;;1.80;;
74124;SDS011;62475;52.192;5.396;2022-09-09T17:06:12;3.20;;;1.45;;
74124;SDS011;62475;52.192;5.396;2022-09-09T17:08:39;3.88;;;1.60;;
74124;SDS011;62475;52.192;5.396;2022-09-09T17:11:15;5.97;;;2.10;;
74124;SDS011;62475;52.192;5.396;2022-09-09T17:13:43;9.27;;;2.10;;